createdAt,value
2023-03-03T00:01:42.406Z,0.40
2023-03-03T00:04:09.385Z,0.30
2023-03-03T00:06:36.224Z,0.30
2023-03-03T00:09:03.116Z,0.40
2023-03-03T00:11:29.772Z,0.40
2023-03-03T00:13:57.277Z,0.40
2023-03-03T00:16:35.237Z,0.30
2023-03-03T00:19:02.260Z,0.30
2023-03-03T00:21:30.634Z,0.30
2023-03-03T00:24:18.099Z,0.30
2023-03-03T00:26:51.354Z,0.30
2023-03-03T00:29:40.808Z,0.40
2023-03-03T00:32:16.503Z,0.40
2023-03-03T00:34:44.256Z,0.40
2023-03-03T00:37:31.247Z,0.30
2023-03-03T00:40:09.588Z,0.10
2023-03-03T00:42:36.371Z,0.10
2023-03-03T00:45:18.430Z,0.00
2023-03-03T00:47:45.165Z,0.00
2023-03-03T00:50:11.788Z,0.00
2023-03-03T00:52:44.231Z,0.00
2023-03-03T00:55:11.987Z,0.10
2023-03-03T00:57:38.674Z,0.10
2023-03-03T01:00:05.946Z,0.10
2023-03-03T01:02:32.648Z,0.10
2023-03-03T01:04:59.338Z,0.10
2023-03-03T01:07:26.226Z,0.10
2023-03-03T01:09:52.976Z,0.20
2023-03-03T01:12:19.645Z,0.20
2023-03-03T01:14:46.411Z,0.20
2023-03-03T01:17:13.075Z,0.20
2023-03-03T01:19:39.770Z,0.30
2023-03-03T01:22:06.464Z,0.20
2023-03-03T01:24:33.506Z,0.00
2023-03-03T01:27:00.477Z,-0.10
2023-03-03T01:29:27.197Z,-0.10
2023-03-03T01:31:54.732Z,0.00
2023-03-03T01:34:21.813Z,0.00
2023-03-03T01:36:48.629Z,0.00
2023-03-03T01:39:15.298Z,-0.10
2023-03-03T01:41:42.132Z,-0.10
2023-03-03T01:44:15.316Z,-0.20
2023-03-03T01:47:00.077Z,-0.30
2023-03-03T01:49:35.646Z,-0.40
2023-03-03T01:52:10.830Z,-0.40
2023-03-03T01:54:45.809Z,-0.40
2023-03-03T01:57:18.386Z,-0.40
2023-03-03T01:59:49.690Z,-0.30
2023-03-03T02:02:16.714Z,-0.30
2023-03-03T02:04:43.405Z,-0.20
2023-03-03T02:07:11.948Z,-0.20
2023-03-03T02:10:05.508Z,-0.20
2023-03-03T02:12:37.766Z,-0.30
2023-03-03T02:15:17.858Z,-0.30
2023-03-03T02:17:45.110Z,-0.40
2023-03-03T02:20:28.799Z,-0.40
2023-03-03T02:23:17.706Z,-0.30
2023-03-03T02:25:59.272Z,-0.20
2023-03-03T02:28:32.249Z,-0.10
2023-03-03T02:31:00.412Z,0.00
2023-03-03T02:33:28.227Z,0.00
2023-03-03T02:35:55.456Z,0.10
2023-03-03T02:38:48.375Z,0.10
2023-03-03T02:41:35.083Z,0.10
2023-03-03T02:44:11.858Z,-0.30
2023-03-03T02:46:44.481Z,-0.40
2023-03-03T02:49:14.453Z,-0.50
2023-03-03T02:51:42.199Z,-0.50
2023-03-03T02:54:10.478Z,-0.50
2023-03-03T02:56:37.439Z,-0.50
2023-03-03T02:59:05.438Z,-0.50
2023-03-03T03:01:36.969Z,-0.60
2023-03-03T03:04:25.436Z,-0.50
2023-03-03T03:06:53.650Z,-0.50
2023-03-03T03:09:22.872Z,-0.50
2023-03-03T03:11:49.572Z,-0.50
2023-03-03T03:14:16.358Z,-0.40
2023-03-03T03:16:43.073Z,-0.40
2023-03-03T03:19:09.899Z,-0.30
2023-03-03T03:21:36.620Z,-0.20
2023-03-03T03:24:03.394Z,-0.20
2023-03-03T03:26:30.065Z,-0.20
2023-03-03T03:28:56.850Z,-0.10
2023-03-03T03:31:23.690Z,0.00
2023-03-03T03:33:50.434Z,0.00
2023-03-03T03:36:17.640Z,0.00
2023-03-03T03:38:44.493Z,0.10
2023-03-03T03:41:12.800Z,0.10
2023-03-03T03:43:39.531Z,0.20
2023-03-03T03:46:06.401Z,0.30
2023-03-03T03:48:33.546Z,0.40
2023-03-03T03:51:00.392Z,0.40
2023-03-03T03:53:27.076Z,0.30
2023-03-03T03:55:53.777Z,0.30
2023-03-03T03:58:20.528Z,0.30
2023-03-03T04:00:47.808Z,0.30
2023-03-03T04:03:15.054Z,0.30
2023-03-03T04:05:42.409Z,0.40
2023-03-03T04:08:09.507Z,0.50
2023-03-03T04:10:36.268Z,0.60
2023-03-03T04:13:02.980Z,0.60
2023-03-03T04:15:29.734Z,0.70
2023-03-03T04:17:57.260Z,0.70
2023-03-03T04:20:24.121Z,0.80
2023-03-03T04:22:50.918Z,0.80
2023-03-03T04:25:18.052Z,0.80
2023-03-03T04:27:45.156Z,0.90
2023-03-03T04:30:13.863Z,0.90
2023-03-03T04:32:41.125Z,0.90
2023-03-03T04:35:08.979Z,0.90
2023-03-03T04:37:37.278Z,0.90
2023-03-03T04:40:05.803Z,0.90
2023-03-03T04:42:32.703Z,0.80
2023-03-03T04:44:59.400Z,0.80
2023-03-03T04:47:26.318Z,0.70
2023-03-03T04:49:53.211Z,0.70
2023-03-03T04:52:20.073Z,0.70
2023-03-03T04:54:46.752Z,0.70
2023-03-03T04:57:13.449Z,0.70
2023-03-03T04:59:40.151Z,0.80
2023-03-03T05:02:06.930Z,0.70
2023-03-03T05:04:34.517Z,0.70
2023-03-03T05:07:01.321Z,0.70
2023-03-03T05:09:28.246Z,0.70
2023-03-03T05:11:55.251Z,0.70
2023-03-03T05:14:22.397Z,0.70
2023-03-03T05:16:49.206Z,0.70
2023-03-03T05:19:16.443Z,0.70
2023-03-03T05:21:43.456Z,0.70
2023-03-03T05:24:11.933Z,0.60
2023-03-03T05:26:39.651Z,0.70
2023-03-03T05:29:07.713Z,0.70
2023-03-03T05:31:34.774Z,0.60
2023-03-03T05:34:02.110Z,0.70
2023-03-03T05:36:28.803Z,0.70
2023-03-03T05:38:55.670Z,0.70
2023-03-03T05:41:22.537Z,0.80
2023-03-03T05:43:49.276Z,0.80
2023-03-03T05:46:16.098Z,0.80
2023-03-03T05:48:43.131Z,0.80
2023-03-03T05:51:09.974Z,0.90
2023-03-03T05:53:36.979Z,1.00
2023-03-03T05:56:03.958Z,1.00
2023-03-03T05:58:30.939Z,1.10
2023-03-03T06:00:57.703Z,1.00
2023-03-03T06:03:24.586Z,1.00
2023-03-03T06:05:51.314Z,1.00
2023-03-03T06:08:18.016Z,0.90
2023-03-03T06:10:44.711Z,0.90
2023-03-03T06:13:11.562Z,0.90
2023-03-03T06:15:38.705Z,0.90
2023-03-03T06:18:05.558Z,1.00
2023-03-03T06:20:33.573Z,1.00
2023-03-03T06:23:00.303Z,1.00
2023-03-03T06:25:27.962Z,1.10
2023-03-03T06:28:02.005Z,1.20
2023-03-03T06:30:30.590Z,1.20
2023-03-03T06:32:57.277Z,1.30
2023-03-03T06:35:24.035Z,1.30
2023-03-03T06:37:50.948Z,1.40
2023-03-03T06:40:18.017Z,1.40
2023-03-03T06:42:45.112Z,1.30
2023-03-03T06:45:12.570Z,1.30
2023-03-03T06:47:39.571Z,1.30
2023-03-03T06:50:07.620Z,1.40
2023-03-03T06:52:34.364Z,1.40
2023-03-03T06:55:09.802Z,1.40
2023-03-03T06:57:37.195Z,1.50
2023-03-03T07:00:22.700Z,1.50
2023-03-03T07:03:02.102Z,1.60
2023-03-03T07:05:29.694Z,1.60
2023-03-03T07:07:57.592Z,1.60
2023-03-03T07:10:29.791Z,1.60
2023-03-03T07:13:06.917Z,1.70
2023-03-03T07:15:36.786Z,1.70
2023-03-03T07:18:12.233Z,1.70
2023-03-03T07:20:39.925Z,1.70
2023-03-03T07:23:25.910Z,1.80
2023-03-03T07:25:53.025Z,1.90
2023-03-03T07:28:27.071Z,2.00
2023-03-03T07:30:55.227Z,2.00
2023-03-03T07:33:34.380Z,2.00
2023-03-03T07:36:03.703Z,2.00
2023-03-03T07:38:45.397Z,2.10
2023-03-03T07:41:20.779Z,2.10
2023-03-03T07:43:54.967Z,2.20
2023-03-03T07:46:43.994Z,2.30
2023-03-03T07:49:29.389Z,2.50
2023-03-03T07:51:57.834Z,2.60
2023-03-03T07:54:34.620Z,2.60
2023-03-03T07:57:13.364Z,2.60
2023-03-03T07:59:48.732Z,2.80
2023-03-03T08:02:40.220Z,2.80
2023-03-03T08:05:26.537Z,3.00
2023-03-03T08:07:53.612Z,3.00
2023-03-03T08:10:35.052Z,3.10
2023-03-03T08:13:11.517Z,3.20
2023-03-03T08:15:38.496Z,3.30
2023-03-03T08:18:24.853Z,3.30
2023-03-03T08:20:55.008Z,3.30
2023-03-03T08:23:22.748Z,3.30
2023-03-03T08:25:51.568Z,3.20
2023-03-03T08:28:19.800Z,3.10
2023-03-03T08:30:47.193Z,3.20
2023-03-03T08:33:15.199Z,3.20
2023-03-03T08:35:42.485Z,3.30
2023-03-03T08:38:09.613Z,3.40
2023-03-03T08:40:36.501Z,3.50
2023-03-03T08:43:03.536Z,3.60
2023-03-03T08:45:30.550Z,3.60
2023-03-03T08:47:57.410Z,3.80
2023-03-03T08:50:24.073Z,3.90
2023-03-03T08:52:50.962Z,3.90
2023-03-03T08:55:18.598Z,4.10
2023-03-03T08:57:45.432Z,4.20
2023-03-03T09:00:15.484Z,4.20
2023-03-03T09:02:42.918Z,4.30
2023-03-03T09:05:11.033Z,4.30
2023-03-03T09:07:38.599Z,4.30
2023-03-03T09:10:06.360Z,4.30
2023-03-03T09:12:39.960Z,4.40
2023-03-03T09:15:25.606Z,4.40
2023-03-03T09:17:53.138Z,4.50
2023-03-03T09:20:32.624Z,4.50
2023-03-03T09:23:16.958Z,4.60
2023-03-03T09:25:43.821Z,4.60
2023-03-03T09:28:33.117Z,4.70
2023-03-03T09:31:02.487Z,4.80
2023-03-03T09:33:39.065Z,4.90
2023-03-03T09:36:15.048Z,5.00
2023-03-03T09:38:45.033Z,5.00
2023-03-03T09:41:43.572Z,5.00
2023-03-03T09:44:33.450Z,5.10
2023-03-03T09:47:12.175Z,5.20
2023-03-03T09:50:02.984Z,5.30
2023-03-03T09:52:40.385Z,5.30
2023-03-03T09:55:35.912Z,5.30
2023-03-03T09:58:22.406Z,5.30
2023-03-03T10:01:18.394Z,5.30
2023-03-03T10:04:22.765Z,5.40
2023-03-03T10:07:15.226Z,5.40
2023-03-03T10:09:54.339Z,5.40
2023-03-03T10:12:29.372Z,5.40
2023-03-03T10:15:41.070Z,5.40
2023-03-03T10:18:10.530Z,5.40
2023-03-03T10:21:09.953Z,5.50
2023-03-03T10:23:50.099Z,5.60
2023-03-03T10:26:31.676Z,5.70
2023-03-03T10:29:22.171Z,5.70
2023-03-03T10:32:00.878Z,5.80
2023-03-03T10:35:02.636Z,5.80
2023-03-03T10:38:14.709Z,5.90
2023-03-03T10:41:06.910Z,6.00
2023-03-03T10:44:11.269Z,5.90
2023-03-03T10:47:00.063Z,5.90
2023-03-03T10:49:39.152Z,6.10
2023-03-03T10:52:17.960Z,5.80
2023-03-03T10:55:00.887Z,5.60
2023-03-03T10:57:38.340Z,5.60
2023-03-03T11:00:26.927Z,5.60
2023-03-03T11:03:08.853Z,5.70
2023-03-03T11:05:41.507Z,5.70
2023-03-03T11:08:31.927Z,5.80
2023-03-03T11:11:16.587Z,6.00
2023-03-03T11:14:00.988Z,6.20
2023-03-03T11:16:48.886Z,6.40
2023-03-03T11:19:52.770Z,6.50
2023-03-03T11:22:30.505Z,6.40
2023-03-03T11:25:30.208Z,6.40
2023-03-03T11:28:12.323Z,6.50
2023-03-03T11:31:02.197Z,6.60
2023-03-03T11:33:38.586Z,6.60
2023-03-03T11:36:20.669Z,6.70
2023-03-03T11:39:04.216Z,6.70
2023-03-03T11:41:36.267Z,6.80
2023-03-03T11:44:09.859Z,6.90
2023-03-03T11:46:51.030Z,6.90
2023-03-03T11:49:33.119Z,7.00
2023-03-03T11:52:01.266Z,6.90
2023-03-03T11:54:34.607Z,6.80
2023-03-03T11:57:29.955Z,6.50
2023-03-03T12:00:04.972Z,7.00
2023-03-03T12:02:54.337Z,7.10
2023-03-03T12:05:45.815Z,7.20
2023-03-03T12:08:20.764Z,7.00
2023-03-03T12:10:53.686Z,7.30
2023-03-03T12:13:40.970Z,7.60
2023-03-03T12:16:31.225Z,7.80
2023-03-03T12:19:23.612Z,7.80
2023-03-03T12:22:07.771Z,7.70
2023-03-03T12:25:07.766Z,7.80
2023-03-03T12:27:52.775Z,7.80
2023-03-03T12:30:37.240Z,7.90
2023-03-03T12:33:22.015Z,7.80
2023-03-03T12:36:16.103Z,7.70
2023-03-03T12:39:34.113Z,7.60
2023-03-03T12:42:10.725Z,7.70
2023-03-03T12:44:53.055Z,7.70
2023-03-03T12:47:29.940Z,7.60
2023-03-03T12:50:15.263Z,7.50
2023-03-03T12:53:09.825Z,7.50
2023-03-03T12:55:58.785Z,7.50
2023-03-03T12:58:48.014Z,7.40
2023-03-03T13:01:56.750Z,7.30
2023-03-03T13:04:56.613Z,7.20
2023-03-03T13:07:39.899Z,7.10
2023-03-03T13:10:35.114Z,7.20
2023-03-03T13:13:07.161Z,7.70
2023-03-03T13:15:51.813Z,8.20
2023-03-03T13:18:43.113Z,8.60
2023-03-03T13:21:22.305Z,9.00
2023-03-03T13:24:06.724Z,9.50
2023-03-03T13:26:43.473Z,9.80
2023-03-03T13:29:34.064Z,9.90
2023-03-03T13:32:12.328Z,10.00
2023-03-03T13:34:58.212Z,9.90
2023-03-03T13:37:43.589Z,10.00
2023-03-03T13:40:43.279Z,10.20
2023-03-03T13:43:41.336Z,10.50
2023-03-03T13:46:36.789Z,10.60
2023-03-03T13:49:31.431Z,10.20
2023-03-03T13:52:22.567Z,10.20
2023-03-03T13:55:01.692Z,10.20
2023-03-03T13:57:48.593Z,10.30
2023-03-03T14:00:38.582Z,10.10
2023-03-03T14:03:36.441Z,10.40
2023-03-03T14:06:14.782Z,10.30
2023-03-03T14:08:56.959Z,10.00
2023-03-03T14:11:33.073Z,10.40
2023-03-03T14:14:33.843Z,10.80
2023-03-03T14:17:32.100Z,11.20
2023-03-03T14:20:03.590Z,11.30
2023-03-03T14:22:45.674Z,11.10
2023-03-03T14:25:15.194Z,11.00
2023-03-03T14:27:59.804Z,10.60
2023-03-03T14:30:35.065Z,10.50
2023-03-03T14:33:08.283Z,10.60
2023-03-03T14:35:37.686Z,10.20
2023-03-03T14:38:17.222Z,10.30
2023-03-03T14:40:46.523Z,10.30
2023-03-03T14:43:46.475Z,10.60
2023-03-03T14:46:30.379Z,10.70
2023-03-03T14:49:00.983Z,11.00
2023-03-03T14:51:34.123Z,11.30
2023-03-03T14:54:01.047Z,11.00
2023-03-03T14:56:34.592Z,11.30
2023-03-03T14:59:20.745Z,11.10
2023-03-03T15:01:47.796Z,10.90
2023-03-03T15:04:14.622Z,10.80
2023-03-03T15:06:47.867Z,10.50
2023-03-03T15:09:39.335Z,10.20
2023-03-03T15:12:44.906Z,10.00
2023-03-03T15:15:24.505Z,9.60
2023-03-03T15:18:05.084Z,9.30
2023-03-03T15:20:53.709Z,9.20
2023-03-03T15:23:41.356Z,9.20
2023-03-03T15:26:35.663Z,9.40
2023-03-03T15:29:17.854Z,9.10
2023-03-03T15:32:21.168Z,9.00
2023-03-03T15:35:00.156Z,8.70
2023-03-03T15:37:30.087Z,8.60
2023-03-03T15:40:34.648Z,8.40
2023-03-03T15:43:25.146Z,8.30
2023-03-03T15:46:07.143Z,8.30
2023-03-03T15:49:11.220Z,8.30
2023-03-03T15:51:53.813Z,8.40
2023-03-03T15:54:52.174Z,8.30
2023-03-03T15:57:43.635Z,8.30
2023-03-03T16:00:31.884Z,8.20
2023-03-03T16:03:19.793Z,8.20
2023-03-03T16:05:52.325Z,8.20
2023-03-03T16:08:41.252Z,8.10
2023-03-03T16:11:10.788Z,8.00
2023-03-03T16:14:01.407Z,7.90
2023-03-03T16:16:52.951Z,7.80
2023-03-03T16:19:41.168Z,7.80
2023-03-03T16:22:27.435Z,7.70
2023-03-03T16:25:25.321Z,7.70
2023-03-03T16:28:14.288Z,7.60
2023-03-03T16:30:56.181Z,7.50
2023-03-03T16:33:34.071Z,7.50
2023-03-03T16:36:08.026Z,7.40
2023-03-03T16:38:41.944Z,7.30
2023-03-03T16:41:39.711Z,7.30
2023-03-03T16:44:40.042Z,7.20
2023-03-03T16:47:22.296Z,7.20
2023-03-03T16:50:26.519Z,7.10
2023-03-03T16:53:19.164Z,7.10
2023-03-03T16:56:21.583Z,7.00
2023-03-03T16:58:53.907Z,7.00
2023-03-03T17:01:45.974Z,6.90
2023-03-03T17:04:18.884Z,6.80
2023-03-03T17:06:53.496Z,6.80
2023-03-03T17:09:43.045Z,6.70
2023-03-03T17:12:25.799Z,6.60
2023-03-03T17:15:11.229Z,6.60
2023-03-03T17:17:55.866Z,6.50
2023-03-03T17:20:28.482Z,6.30
2023-03-03T17:23:17.503Z,6.20
2023-03-03T17:26:22.793Z,6.20
2023-03-03T17:29:09.116Z,6.10
2023-03-03T17:31:43.985Z,6.00
2023-03-03T17:34:29.390Z,5.90
2023-03-03T17:37:16.596Z,5.80
2023-03-03T17:40:23.436Z,5.70
2023-03-03T17:43:25.601Z,5.60
2023-03-03T17:45:55.295Z,5.50
2023-03-03T17:48:31.636Z,5.50
2023-03-03T17:51:13.758Z,5.40
2023-03-03T17:54:14.186Z,5.40
2023-03-03T17:56:50.399Z,5.30
2023-03-03T17:59:41.320Z,5.20
2023-03-03T18:02:27.276Z,5.10
2023-03-03T18:05:43.495Z,5.00
2023-03-03T18:08:22.153Z,5.00
2023-03-03T18:11:17.771Z,4.90
2023-03-03T18:13:50.386Z,4.90
2023-03-03T18:16:41.488Z,4.80
2023-03-03T18:19:17.266Z,4.70
2023-03-03T18:22:04.900Z,4.70
2023-03-03T18:24:57.659Z,4.60
2023-03-03T18:27:24.351Z,4.50
2023-03-03T18:30:20.406Z,4.30
2023-03-03T18:32:56.299Z,4.20
2023-03-03T18:35:43.974Z,4.10
2023-03-03T18:38:16.842Z,4.00
2023-03-03T18:40:53.808Z,4.00
2023-03-03T18:43:45.446Z,4.00
2023-03-03T18:46:24.151Z,3.90
2023-03-03T18:49:10.759Z,3.90
2023-03-03T18:51:40.860Z,3.90
2023-03-03T18:54:14.122Z,3.80
2023-03-03T18:56:55.915Z,3.80
2023-03-03T18:59:31.615Z,3.70
2023-03-03T19:02:20.264Z,3.70
2023-03-03T19:05:13.812Z,3.70
2023-03-03T19:07:40.535Z,3.60
2023-03-03T19:10:22.191Z,3.60
2023-03-03T19:12:51.913Z,3.60
2023-03-03T19:15:35.600Z,3.60
2023-03-03T19:18:19.153Z,3.60
2023-03-03T19:20:59.660Z,3.60
2023-03-03T19:23:47.555Z,3.50
2023-03-03T19:26:26.561Z,3.50
2023-03-03T19:29:03.482Z,3.40
2023-03-03T19:31:51.211Z,3.30
2023-03-03T19:34:34.454Z,3.30
2023-03-03T19:37:22.151Z,3.30
2023-03-03T19:40:03.634Z,3.20
2023-03-03T19:42:37.071Z,3.10
2023-03-03T19:45:11.705Z,3.10
2023-03-03T19:47:44.191Z,3.10
2023-03-03T19:50:25.845Z,3.00
2023-03-03T19:53:20.512Z,2.80
2023-03-03T19:56:19.663Z,2.70
2023-03-03T19:59:03.643Z,2.60
2023-03-03T20:01:59.670Z,2.60
2023-03-03T20:04:44.901Z,2.60
2023-03-03T20:07:28.952Z,2.50
2023-03-03T20:10:17.353Z,2.50
2023-03-03T20:12:53.117Z,2.40
2023-03-03T20:16:03.557Z,2.50
2023-03-03T20:18:58.737Z,2.40
2023-03-03T20:21:35.185Z,2.40
2023-03-03T20:24:35.578Z,2.40
2023-03-03T20:27:18.582Z,2.40
2023-03-03T20:30:02.648Z,2.40
2023-03-03T20:32:43.004Z,2.30
2023-03-03T20:35:40.682Z,2.30
2023-03-03T20:38:22.514Z,2.30
2023-03-03T20:40:58.167Z,2.20
2023-03-03T20:43:27.841Z,2.20
2023-03-03T20:45:54.616Z,2.20
2023-03-03T20:48:39.916Z,2.10
2023-03-03T20:51:25.432Z,2.10
2023-03-03T20:54:06.967Z,2.10
2023-03-03T20:56:52.333Z,2.00
2023-03-03T20:59:31.926Z,2.00
2023-03-03T21:02:36.856Z,1.90
2023-03-03T21:05:11.384Z,1.90
2023-03-03T21:07:40.941Z,1.80
2023-03-03T21:10:23.975Z,1.80
2023-03-03T21:13:25.804Z,1.80
2023-03-03T21:16:10.415Z,1.70
2023-03-03T21:18:37.351Z,1.70
2023-03-03T21:21:04.714Z,1.70
2023-03-03T21:23:31.430Z,1.70
2023-03-03T21:25:58.781Z,1.70
2023-03-03T21:28:33.906Z,1.60
2023-03-03T21:31:15.699Z,1.50
2023-03-03T21:33:47.115Z,1.50
2023-03-03T21:36:19.565Z,1.50
2023-03-03T21:38:47.243Z,1.60
2023-03-03T21:41:15.766Z,1.60
2023-03-03T21:43:47.061Z,1.60
2023-03-03T21:46:21.070Z,1.50
2023-03-03T21:48:48.137Z,1.50
2023-03-03T21:51:15.120Z,1.50
2023-03-03T21:53:44.219Z,1.60
2023-03-03T21:56:14.012Z,1.60
2023-03-03T21:58:44.101Z,1.60
2023-03-03T22:01:10.846Z,1.60
2023-03-03T22:03:37.801Z,1.60
2023-03-03T22:06:04.731Z,1.60
2023-03-03T22:08:31.429Z,1.50
2023-03-03T22:10:58.305Z,1.50
2023-03-03T22:13:28.134Z,1.40
2023-03-03T22:15:55.285Z,1.40
2023-03-03T22:18:22.201Z,1.40
2023-03-03T22:20:50.632Z,1.40
2023-03-03T22:23:18.873Z,1.50
2023-03-03T22:25:46.019Z,1.50
2023-03-03T22:28:12.864Z,1.50
2023-03-03T22:30:39.613Z,1.60
2023-03-03T22:33:06.486Z,1.50
2023-03-03T22:35:33.214Z,1.40
2023-03-03T22:37:59.982Z,1.30
2023-03-03T22:40:26.890Z,1.30
2023-03-03T22:42:53.603Z,1.40
2023-03-03T22:45:20.463Z,1.40
2023-03-03T22:47:47.114Z,1.50
2023-03-03T22:50:14.910Z,1.50
2023-03-03T22:52:41.585Z,1.50
2023-03-03T22:55:09.164Z,1.50
2023-03-03T22:57:35.989Z,1.30
2023-03-03T23:00:04.099Z,1.30
2023-03-03T23:02:30.761Z,1.20
2023-03-03T23:05:01.773Z,1.20
2023-03-03T23:07:29.279Z,1.20
2023-03-03T23:09:56.638Z,1.20
2023-03-03T23:12:23.650Z,1.20
2023-03-03T23:14:50.406Z,1.10
2023-03-03T23:17:17.311Z,1.10
2023-03-03T23:19:46.223Z,1.00
2023-03-03T23:22:13.848Z,1.00
2023-03-03T23:24:41.496Z,1.00
2023-03-03T23:27:09.543Z,1.00
2023-03-03T23:29:36.290Z,0.90
2023-03-03T23:32:04.284Z,0.90
2023-03-03T23:34:32.130Z,0.80
2023-03-03T23:36:58.817Z,0.80
2023-03-03T23:39:25.522Z,0.80
2023-03-03T23:41:52.195Z,0.80
2023-03-03T23:44:18.885Z,0.70
2023-03-03T23:46:45.773Z,0.70
2023-03-03T23:49:12.480Z,0.70
2023-03-03T23:51:39.207Z,0.70
2023-03-03T23:54:06.026Z,0.70
2023-03-03T23:56:32.705Z,0.80
2023-03-03T23:58:59.709Z,0.80
